Maran Pythia — SVAQ5 — position and weather

sailwx.info

Track history (hours):
 
Tides and Currents Weather Stations Pressure Air Temp Water Temp Dewpoint Dewpoint Depression Visibility Wind Speed Wind Dir Waves Ship Positions

Maran Pythia

Last reported at 2017-Nov-29 10:24 UTC. Time now 2017-Dec-16 01:37 UTC.
Position S 05°53' E 011°35'.
Warning: this ship's position is 16 days out of date.

Length 275 m; draft 15.3 m.

Type: Ship (hazmat cat A). MMSI: 240893000.

Date/timePositionNaut miles runAvg speedWind from/ knotsBaromVisibWave heightAir tempDewpointWater temp
2017-Nov-29 10:24S 05°53' E 011°35'512.4
2017-Nov-29 09:57S 05°48' E 011°36'812.5
2017-Nov-29 09:20S 05°42' E 011°41'413.0
2017-Nov-29 09:00S 05°39' E 011°45'612.8
2017-Nov-29 08:30S 05°36' E 011°50'9 2.7
2017-Nov-29 05:08S 05°30' E 011°57'0 0.6
2017-Nov-29 05:00S 05°30' E 011°57'0 0.8
2017-Nov-29 04:29S 05°30' E 011°57'0 0.5
2017-Nov-29 03:41S 05°29' E 011°58'2 3.6
2017-Nov-29 03:10S 05°29' E 011°59'1 6.4
2017-Nov-29 02:56S 05°30' E 012°01'2 0.3
2017-Nov-28 18:05S 05°32' E 012°02'0 0.0
2017-Nov-28 17:41S 05°32' E 012°02'0 0.0
2017-Nov-28 17:29S 05°32' E 012°02'0 0.0
2017-Nov-28 16:59S 05°32' E 012°02'0 0.0
2017-Nov-28 16:23S 05°32' E 012°02'0 0.0
2017-Nov-28 13:23S 05°32' E 012°02'0 0.0
2017-Nov-28 12:59S 05°32' E 012°02'0 0.0
2017-Nov-28 12:29S 05°32' E 012°02'0 0.0
2017-Nov-28 11:53S 05°32' E 012°02'0 0.0
2017-Nov-28 10:56S 05°32' E 012°02'5 0.2
2017-Nov-27 13:01S 05°29' E 011°58'3 1.3
2017-Nov-27 10:39S 05°27' E 011°56'0 0.0
2017-Nov-27 10:12S 05°27' E 011°56'0 0.0
2017-Nov-27 10:00S 05°27' E 011°56'0 0.0
2017-Nov-27 08:36S 05°27' E 011°56'0 0.1
2017-Nov-27 08:30S 05°27' E 011°56'0 0.1
2017-Nov-27 05:09S 05°27' E 011°56'3 6.0
2017-Nov-27 04:42S 05°27' E 011°53'1 4.9
2017-Nov-27 04:30S 05°27' E 011°52'1 1.2
2017-Nov-27 04:00S 05°27' E 011°52'4 7.6
2017-Nov-27 03:30S 05°28' E 011°48'4 8.9
2017-Nov-27 03:00S 05°28' E 011°44'4 8.5
2017-Nov-27 02:30S 05°28' E 011°39'4 8.3
2017-Nov-27 01:59S 05°26' E 011°36'4 8.3
2017-Nov-27 01:30S 05°24' E 011°32'4 8.8
2017-Nov-27 01:00S 05°25' E 011°28'4 8.9
2017-Nov-27 00:30S 05°26' E 011°24'4 8.9
2017-Nov-27 00:00S 05°26' E 011°19'4 8.8
2017-Nov-26 23:30S 05°26' E 011°15'4 8.4
2017-Nov-26 23:00S 05°25' E 011°10'4 8.4
2017-Nov-26 22:30S 05°25' E 011°06'  
Track history (hours):
 
Tides and Currents Weather Stations Pressure Air Temp Water Temp Dewpoint Dewpoint Depression Visibility Wind Speed Wind Dir Waves Ship Positions

Maran Pythia

Last reported at 2017-Nov-29 10:24 UTC. Time now 2017-Dec-16 01:37 UTC.
Position S 05°53' E 011°35'.
Warning: this ship's position is 16 days out of date.

Length 275 m; draft 15.3 m.

Type: Ship (hazmat cat A). MMSI: 240893000.

Date/timePositionNaut miles runAvg speedWind from/ knotsBaromVisibWave heightAir tempDewpointWater temp
2017-Nov-29 10:24S 05°53' E 011°35'512.4
2017-Nov-29 09:57S 05°48' E 011°36'812.5
2017-Nov-29 09:20S 05°42' E 011°41'413.0
2017-Nov-29 09:00S 05°39' E 011°45'612.8
2017-Nov-29 08:30S 05°36' E 011°50'9 2.7
2017-Nov-29 05:08S 05°30' E 011°57'0 0.6
2017-Nov-29 05:00S 05°30' E 011°57'0 0.8
2017-Nov-29 04:29S 05°30' E 011°57'0 0.5
2017-Nov-29 03:41S 05°29' E 011°58'2 3.6
2017-Nov-29 03:10S 05°29' E 011°59'1 6.4
2017-Nov-29 02:56S 05°30' E 012°01'2 0.3
2017-Nov-28 18:05S 05°32' E 012°02'0 0.0
2017-Nov-28 17:41S 05°32' E 012°02'0 0.0
2017-Nov-28 17:29S 05°32' E 012°02'0 0.0
2017-Nov-28 16:59S 05°32' E 012°02'0 0.0
2017-Nov-28 16:23S 05°32' E 012°02'0 0.0
2017-Nov-28 13:23S 05°32' E 012°02'0 0.0
2017-Nov-28 12:59S 05°32' E 012°02'0 0.0
2017-Nov-28 12:29S 05°32' E 012°02'0 0.0
2017-Nov-28 11:53S 05°32' E 012°02'0 0.0
2017-Nov-28 10:56S 05°32' E 012°02'5 0.2
2017-Nov-27 13:01S 05°29' E 011°58'3 1.3
2017-Nov-27 10:39S 05°27' E 011°56'0 0.0
2017-Nov-27 10:12S 05°27' E 011°56'0 0.0
2017-Nov-27 10:00S 05°27' E 011°56'0 0.0
2017-Nov-27 08:36S 05°27' E 011°56'0 0.1
2017-Nov-27 08:30S 05°27' E 011°56'0 0.1
2017-Nov-27 05:09S 05°27' E 011°56'3 6.0
2017-Nov-27 04:42S 05°27' E 011°53'1 4.9
2017-Nov-27 04:30S 05°27' E 011°52'1 1.2
2017-Nov-27 04:00S 05°27' E 011°52'4 7.6
2017-Nov-27 03:30S 05°28' E 011°48'4 8.9
2017-Nov-27 03:00S 05°28' E 011°44'4 8.5
2017-Nov-27 02:30S 05°28' E 011°39'4 8.3
2017-Nov-27 01:59S 05°26' E 011°36'4 8.3
2017-Nov-27 01:30S 05°24' E 011°32'4 8.8
2017-Nov-27 01:00S 05°25' E 011°28'4 8.9
2017-Nov-27 00:30S 05°26' E 011°24'4 8.9
2017-Nov-27 00:00S 05°26' E 011°19'4 8.8
2017-Nov-26 23:30S 05°26' E 011°15'4 8.4
2017-Nov-26 23:00S 05°25' E 011°10'4 8.4
2017-Nov-26 22:30S 05°25' E 011°06'  

Dump ship's entire track history